Flight Track Log - Related Links

Times and Time Zones

All times are in EDT time to prevent confusion due to time zone crossing. See the JZA8592 flight status page for this flight to view local times or setup timezone preferences in your user account.

Time Position Orientation Groundspeed Altitude Reporting Facility
EDT Latitude Longitude Course Direction KTS MPH feet Rate Location/Type
Wed 12:53:30 AM 51.1000 -114.0667 298° West 130 150 3,700  Level Edmonton Center
Wed 12:54:30 AM 51.1167 -114.1167 298° West 180 207 5,700 2,150 Climbing Edmonton Center
Wed 12:55:30 AM 51.1667 -114.1000 12° North 200 230 8,000 2,250 Climbing Edmonton Center
Wed 12:56:30 AM 51.2167 -114.0667 23° Northeast 210 242 10,200 1,850 Climbing Edmonton Center
Wed 12:57:30 AM 51.2500 -113.9667 62° Northeast 270 311 11,700 1,600 Climbing Edmonton Center
Wed 12:58:30 AM 51.2833 -113.8667 62° Northeast 280 322 13,400 1,900 Climbing Edmonton Center
Wed 12:59:30 AM 51.3333 -113.7667 51° Northeast 280 322 15,500 2,000 Climbing Edmonton Center
Wed 01:00:30 AM 51.3667 -113.6667 62° Northeast 270 311 17,400 1,850 Climbing Edmonton Center
Wed 01:01:30 AM 51.4167 -113.5333 59° Northeast 260 299 19,200 1,700 Climbing Edmonton Center
Wed 01:02:30 AM 51.4333 -113.4500 72° East 250 288 20,800 1,550 Climbing Edmonton Center
Wed 01:03:30 AM 51.4833 -113.3500 51° Northeast 250 288 22,300 1,100 Climbing Edmonton Center
Wed 01:04:30 AM 51.5000 -113.2500 75° East 250 288 23,000 350 Climbing Edmonton Center
Wed 01:05:30 AM 51.5333 -113.1167 68° East 280 322 23,000  Level Edmonton Center
Wed 01:06:30 AM 51.5333 -112.9833 90° East 300 345 23,000  Level Edmonton Center
Wed 01:07:30 AM 51.5667 -112.8500 68° East 300 345 23,000  Level Edmonton Center
Wed 01:08:30 AM 51.5833 -112.7167 79° East 300 345 23,000  Level Edmonton Center
Wed 01:09:30 AM 51.5833 -112.5833 90° East 310 357 23,000  Level Edmonton Center
Wed 01:10:30 AM 51.6167 -112.4500 68° East 310 357 23,000  Level Edmonton Center
Wed 01:11:30 AM 51.6167 -112.3167 90° East 310 357 23,000  Level Edmonton Center
Wed 01:12:30 AM 51.6333 -112.1833 79° East 310 357 23,000  Level Edmonton Center
Wed 01:13:30 AM 51.6500 -112.0500 79° East 310 357 23,000  Level Edmonton Center
Wed 01:14:30 AM 51.6667 -111.8833 81° East 310 357 23,000  Level Edmonton Center
Wed 01:15:30 AM 51.6833 -111.7500 79° East 310 357 23,000  Level Edmonton Center
Wed 01:16:30 AM 51.7000 -111.6167 79° East 310 357 23,000  Level Edmonton Center
Wed 01:17:30 AM 51.7000 -111.4833 90° East 310 357 23,000  Level Edmonton Center
Wed 01:18:30 AM 51.7333 -111.3500 68° East 310 357 23,000  Level Edmonton Center
Wed 01:19:30 AM 51.7333 -111.1833 90° East 320 368 23,000  Level Edmonton Center
Wed 01:20:30 AM 51.7500 -111.0500 79° East 310 357 23,000  Level Edmonton Center
Wed 01:21:30 AM 51.7667 -110.9167 79° East 310 357 23,000  Level Edmonton Center
Wed 01:22:30 AM 51.7833 -110.7833 79° East 310 357 23,000  Level Edmonton Center
Wed 01:23:30 AM 51.8000 -110.6500 79° East 310 357 23,000  Level Edmonton Center
Wed 01:24:30 AM 51.8167 -110.5167 79° East 310 357 23,000  Level Edmonton Center
Wed 01:25:30 AM 51.8167 -110.3833 90° East 310 357 23,000  Level Edmonton Center
Wed 01:26:30 AM 51.8333 -110.2167 81° East 310 357 23,000  Level Edmonton Center
Wed 01:27:30 AM 51.8500 -110.0833 79° East 310 357 23,000  Level Edmonton Center
Wed 01:28:30 AM 51.8667 -109.9500 79° East 310 357 23,000  Level Edmonton Center
Wed 01:29:30 AM 51.8833 -109.8167 79° East 310 357 23,000  Level Edmonton Center
Wed 01:30:30 AM 51.8833 -109.6667 90° East 310 357 23,000  Level Edmonton Center
Wed 01:31:30 AM 51.9000 -109.5167 80° East 320 368 23,000  Level Edmonton Center
Wed 01:32:30 AM 51.9167 -109.3667 80° East 320 368 23,000  Level Edmonton Center
Wed 01:33:30 AM 51.9333 -109.2333 78° East 320 368 23,000  Level Edmonton Center
Wed 01:34:30 AM 51.9333 -109.1000 90° East 320 368 23,000  Level Edmonton Center
Wed 01:35:30 AM 51.9500 -108.9333 81° East 320 368 23,000  Level Edmonton Center
Wed 01:36:30 AM 51.9500 -108.8000 90° East 330 380 23,000  Level Edmonton Center
Wed 01:37:30 AM 51.9500 -108.6333 90° East 330 380 23,000  Level Edmonton Center
Wed 01:38:30 AM 51.9333 -108.5000 101° East 330 380 23,000  Level Edmonton Center
Wed 01:39:30 AM 51.9500 -108.3333 81° East 330 380 23,000  Level Edmonton Center
Wed 01:40:30 AM 51.9500 -108.2000 90° East 330 380 23,000 -350 Level Edmonton Center
Wed 01:41:30 AM 51.9500 -108.0333 90° East 340 391 22,300 -1,250 Descending Edmonton Center
Wed 01:42:30 AM 51.9500 -107.8667 90° East 360 414 20,500 -1,750 Descending Edmonton Center
Wed 01:43:30 AM 51.9500 -107.7000 90° East 360 414 18,800 -1,600 Descending Edmonton Center
Wed 01:44:30 AM 51.9500 -107.5333 90° East 360 414 17,300 -1,650 Descending Edmonton Center
Wed 01:45:30 AM 51.9500 -107.3833 90° East 350 403 15,500 -1,700 Descending Edmonton Center
Wed 01:46:30 AM 51.9333 -107.2167 99° East 350 403 13,900 -1,650 Descending Edmonton Center
Wed 01:47:30 AM 51.9500 -107.0667 80° East 350 403 12,200 -1,600 Descending Edmonton Center
Wed 01:48:30 AM 51.9500 -106.9167 90° East 320 368 10,700 -1,400 Descending Edmonton Center
Wed 01:49:30 AM 51.9500 -106.7667 90° East 290 334 9,400 -1,250 Descending Edmonton Center
Wed 01:50:30 AM 51.9500 -106.6667 90° East 260 299 8,200 -1,350 Descending Edmonton Center
Wed 01:51:30 AM 51.9500 -106.5833 90° East 240 276 6,700 -1,700 Descending Edmonton Center
Wed 01:52:30 AM 52.0000 -106.5833 360° North 200 230 4,800 -1,400 Descending Edmonton Center
Wed 01:53:30 AM 52.0500 -106.6167 338° Northwest 170 196 3,900 -1,000 Descending Edmonton Center
Wed 01:54:30 AM 52.0833 -106.6333 343° North 170 196 2,800 -950 Descending Edmonton Center
Wed 01:55:30 AM 52.1167 -106.7000 309° West 130 150 2,000 -800 Descending Edmonton Center

Login

Don't have an account? Register now (free) for customized features, flight alerts, and more!